createdAt,value
2019-05-19T19:48:16.222Z,8.20
2019-05-19T19:50:50.123Z,9.47
2019-05-19T19:53:24.138Z,11.80
2019-05-19T19:56:00.998Z,10.53
2019-05-19T19:58:36.984Z,9.40
2019-05-19T20:01:12.754Z,9.37
2019-05-19T20:03:49.069Z,8.47
2019-05-19T20:06:22.479Z,9.20
2019-05-19T20:08:56.188Z,7.97
2019-05-19T20:11:29.325Z,8.90
2019-05-19T20:14:05.689Z,9.50
2019-05-19T20:16:44.176Z,9.30
2019-05-19T20:19:18.341Z,10.80
2019-05-19T20:21:54.807Z,10.30
2019-05-19T20:24:29.832Z,12.77
2019-05-19T20:27:02.850Z,12.47
2019-05-19T20:29:42.308Z,11.80
2019-05-19T20:32:24.267Z,13.10
2019-05-19T20:34:59.545Z,12.67
2019-05-19T20:37:32.751Z,12.37
2019-05-19T20:40:11.186Z,14.00
2019-05-19T20:42:45.015Z,14.17
2019-05-19T20:45:18.362Z,13.03
2019-05-19T20:47:52.467Z,12.57
2019-05-19T20:50:30.957Z,15.80
2019-05-19T20:53:05.767Z,12.37
2019-05-19T20:55:39.992Z,12.00
2019-05-19T20:58:13.350Z,13.33
2019-05-19T21:00:50.578Z,13.17
2019-05-19T21:03:21.940Z,13.97
2019-05-19T21:05:57.850Z,15.03
2019-05-19T21:08:31.884Z,15.27
2019-05-19T21:11:05.301Z,17.07
2019-05-19T21:13:38.564Z,15.23
2019-05-19T21:16:12.159Z,16.80
2019-05-19T21:18:47.127Z,16.70
2019-05-19T21:21:20.275Z,14.57
2019-05-19T21:23:53.706Z,18.63
2019-05-19T21:26:26.887Z,16.30
2019-05-19T21:28:59.551Z,15.10
2019-05-19T21:31:32.906Z,19.73
2019-05-19T21:34:06.314Z,19.33
2019-05-19T21:36:40.286Z,15.70
2019-05-19T21:39:13.850Z,15.83
2019-05-19T21:41:46.772Z,17.70
2019-05-19T21:44:19.872Z,16.63
2019-05-19T21:46:53.369Z,15.77
2019-05-19T21:49:26.562Z,15.57
2019-05-19T21:51:59.328Z,18.50
2019-05-19T21:54:32.335Z,17.03
2019-05-19T21:57:06.045Z,19.70
2019-05-19T21:59:39.555Z,17.37
2019-05-19T22:02:13.041Z,20.20
2019-05-19T22:04:46.185Z,18.10
2019-05-19T22:07:29.060Z,19.13
2019-05-19T22:10:02.556Z,19.33
2019-05-19T22:12:35.743Z,17.90
2019-05-19T22:15:10.957Z,17.65
2019-05-19T22:17:44.005Z,17.97
2019-05-19T22:20:17.497Z,18.63
2019-05-19T22:22:50.553Z,17.73
2019-05-19T22:25:26.509Z,16.87
2019-05-19T22:28:00.017Z,17.93
2019-05-19T22:30:32.655Z,17.37
2019-05-19T22:33:06.408Z,19.48
2019-05-19T22:35:40.382Z,17.60
2019-05-19T22:38:13.424Z,21.73
2019-05-19T22:40:46.001Z,19.92
2019-05-19T22:43:19.759Z,19.45
2019-05-19T22:45:53.192Z,22.00
2019-05-19T22:48:26.578Z,20.57
2019-05-19T22:51:00.072Z,21.65
2019-05-19T22:53:32.804Z,22.15
2019-05-19T22:56:05.995Z,19.77
2019-05-19T22:58:41.513Z,21.55
2019-05-19T23:01:14.280Z,22.42
2019-05-19T23:03:46.967Z,24.20
2019-05-19T23:06:20.063Z,23.85
2019-05-19T23:08:53.468Z,27.87
2019-05-19T23:11:27.052Z,25.85
2019-05-19T23:14:01.811Z,24.35
2019-05-19T23:16:35.093Z,27.75
2019-05-19T23:19:08.604Z,28.77
2019-05-19T23:21:42.218Z,24.72
2019-05-19T23:24:15.577Z,26.25
2019-05-19T23:26:48.884Z,29.70
2019-05-19T23:29:21.514Z,29.55
2019-05-19T23:32:06.222Z,29.27
2019-05-19T23:34:30.078Z,33.28
2019-05-19T23:37:03.076Z,30.08
2019-05-19T23:39:36.757Z,35.70
2019-05-19T23:42:09.999Z,29.37
2019-05-19T23:44:43.450Z,32.85
2019-05-19T23:47:16.439Z,31.35
2019-05-19T23:49:49.929Z,32.98
2019-05-19T23:52:24.231Z,30.85
2019-05-19T23:54:56.929Z,29.80
2019-05-19T23:57:29.797Z,33.00
